sensor_id;sensor_type;location;lat;lon;timestamp;pressure;altitude;pressure_sealevel;temperature;humidity
13486;BME280;6815;59.336;17.998;2022-11-20T00:01:16;78488.78;;;-145.37;97.26
13486;BME280;6815;59.336;17.998;2022-11-20T00:03:42;78486.78;;;-145.37;97.39
13486;BME280;6815;59.336;17.998;2022-11-20T00:06:10;78472.69;;;-145.37;97.52
13486;BME280;6815;59.336;17.998;2022-11-20T00:08:36;78480.75;;;-145.37;97.52
13486;BME280;6815;59.336;17.998;2022-11-20T00:11:10;78454.59;;;-145.37;97.26
13486;BME280;6815;59.336;17.998;2022-11-20T00:13:36;78466.66;;;-145.37;97.18
13486;BME280;6815;59.336;17.998;2022-11-20T00:16:05;78464.66;;;-145.37;97.03
13486;BME280;6815;59.336;17.998;2022-11-20T00:18:32;78468.66;;;-145.37;96.95
13486;BME280;6815;59.336;17.998;2022-11-20T00:21:03;78464.66;;;-145.37;96.99
13486;BME280;6815;59.336;17.998;2022-11-20T00:23:29;78472.69;;;-145.37;96.80
13486;BME280;6815;59.336;17.998;2022-11-20T00:25:55;78476.72;;;-145.37;96.69
13486;BME280;6815;59.336;17.998;2022-11-20T00:28:20;78470.69;;;-145.37;96.47
13486;BME280;6815;59.336;17.998;2022-11-20T00:30:46;78472.69;;;-145.37;96.34
13486;BME280;6815;59.336;17.998;2022-11-20T00:33:11;78458.63;;;-145.37;96.32
13486;BME280;6815;59.336;17.998;2022-11-20T00:35:38;78464.66;;;-145.37;96.12
13486;BME280;6815;59.336;17.998;2022-11-20T00:38:03;78470.69;;;-145.37;96.06
13486;BME280;6815;59.336;17.998;2022-11-20T00:40:29;78460.63;;;-145.37;96.24
13486;BME280;6815;59.336;17.998;2022-11-20T00:42:54;78462.63;;;-145.37;95.98
13486;BME280;6815;59.336;17.998;2022-11-20T00:45:19;78462.63;;;-145.37;95.72
13486;BME280;6815;59.336;17.998;2022-11-20T00:47:45;78470.69;;;-145.37;95.69
13486;BME280;6815;59.336;17.998;2022-11-20T00:50:11;78470.69;;;-145.37;95.82
13486;BME280;6815;59.336;17.998;2022-11-20T00:52:36;78460.63;;;-145.37;95.26
13486;BME280;6815;59.336;17.998;2022-11-20T00:55:02;78456.59;;;-145.37;95.00
13486;BME280;6815;59.336;17.998;2022-11-20T00:57:27;78462.63;;;-145.37;95.16
13486;BME280;6815;59.336;17.998;2022-11-20T00:59:52;78448.56;;;-145.37;94.87
13486;BME280;6815;59.336;17.998;2022-11-20T01:02:18;78440.50;;;-145.37;94.61
13486;BME280;6815;59.336;17.998;2022-11-20T01:04:43;78454.59;;;-145.37;94.59
13486;BME280;6815;59.336;17.998;2022-11-20T01:07:09;78466.66;;;-145.37;94.81
13486;BME280;6815;59.336;17.998;2022-11-20T01:09:34;78444.53;;;-145.37;94.67
13486;BME280;6815;59.336;17.998;2022-11-20T01:12:00;78442.53;;;-145.37;94.18
13486;BME280;6815;59.336;17.998;2022-11-20T01:14:26;78454.59;;;-145.37;94.23
13486;BME280;6815;59.336;17.998;2022-11-20T01:16:51;78450.56;;;-145.37;94.12
13486;BME280;6815;59.336;17.998;2022-11-20T01:19:20;78444.53;;;-145.37;94.13
13486;BME280;6815;59.336;17.998;2022-11-20T01:21:48;78448.56;;;-145.37;94.32
13486;BME280;6815;59.336;17.998;2022-11-20T01:24:16;78446.53;;;-145.37;94.18
13486;BME280;6815;59.336;17.998;2022-11-20T01:26:43;78430.44;;;-145.37;93.93
13486;BME280;6815;59.336;17.998;2022-11-20T01:29:15;78424.41;;;-145.37;93.27
13486;BME280;6815;59.336;17.998;2022-11-20T01:31:41;78436.47;;;-145.37;93.79
13486;BME280;6815;59.336;17.998;2022-11-20T01:34:10;78442.53;;;-145.37;94.05
13486;BME280;6815;59.336;17.998;2022-11-20T01:36:37;78436.47;;;-145.37;93.31
13486;BME280;6815;59.336;17.998;2022-11-20T01:39:05;78434.47;;;-145.37;93.52
13486;BME280;6815;59.336;17.998;2022-11-20T01:41:33;78432.47;;;-145.37;93.64
13486;BME280;6815;59.336;17.998;2022-11-20T01:44:20;78414.34;;;-145.37;93.46
13486;BME280;6815;59.336;17.998;2022-11-20T01:46:58;78414.34;;;-145.37;93.21
13486;BME280;6815;59.336;17.998;2022-11-20T01:49:46;78396.25;;;-145.37;92.71
13486;BME280;6815;59.336;17.998;2022-11-20T01:52:26;78412.34;;;-145.37;92.77
13486;BME280;6815;59.336;17.998;2022-11-20T01:54:59;78408.31;;;-145.37;93.56
13486;BME280;6815;59.336;17.998;2022-11-20T01:57:30;78410.34;;;-145.37;92.90
13486;BME280;6815;59.336;17.998;2022-11-20T02:00:02;78424.41;;;-145.37;93.20
13486;BME280;6815;59.336;17.998;2022-11-20T02:02:28;78408.31;;;-145.37;93.27
13486;BME280;6815;59.336;17.998;2022-11-20T02:04:56;78398.25;;;-145.37;93.24
13486;BME280;6815;59.336;17.998;2022-11-20T02:07:26;78408.31;;;-145.37;93.48
13486;BME280;6815;59.336;17.998;2022-11-20T02:09:51;78408.31;;;-145.37;93.73
13486;BME280;6815;59.336;17.998;2022-11-20T02:12:17;78408.31;;;-145.37;93.70
13486;BME280;6815;59.336;17.998;2022-11-20T02:15:01;78400.28;;;-145.37;93.68
13486;BME280;6815;59.336;17.998;2022-11-20T02:17:27;78412.34;;;-145.37;93.62
13486;BME280;6815;59.336;17.998;2022-11-20T02:19:53;78406.31;;;-145.37;94.02
13486;BME280;6815;59.336;17.998;2022-11-20T02:22:32;78396.25;;;-145.37;93.75
13486;BME280;6815;59.336;17.998;2022-11-20T02:25:02;78400.28;;;-145.37;93.75
13486;BME280;6815;59.336;17.998;2022-11-20T02:27:29;78392.22;;;-145.37;93.79
13486;BME280;6815;59.336;17.998;2022-11-20T02:32:30;78376.13;;;-145.37;93.72
13486;BME280;6815;59.336;17.998;2022-11-20T02:34:56;78386.19;;;-145.37;93.50
13486;BME280;6815;59.336;17.998;2022-11-20T02:37:22;78388.19;;;-145.37;93.91
13486;BME280;6815;59.336;17.998;2022-11-20T02:39:50;78386.19;;;-145.37;93.80
13486;BME280;6815;59.336;17.998;2022-11-20T02:42:16;78384.19;;;-145.37;93.59
13486;BME280;6815;59.336;17.998;2022-11-20T02:44:42;78382.16;;;-145.37;93.42
13486;BME280;6815;59.336;17.998;2022-11-20T02:47:07;78374.13;;;-145.37;93.34
13486;BME280;6815;59.336;17.998;2022-11-20T02:49:33;78376.13;;;-145.37;93.58
13486;BME280;6815;59.336;17.998;2022-11-20T02:51:59;78362.06;;;-145.37;93.55
13486;BME280;6815;59.336;17.998;2022-11-20T02:54:24;78372.09;;;-145.37;93.66
13486;BME280;6815;59.336;17.998;2022-11-20T02:56:50;78376.13;;;-145.37;94.15
13486;BME280;6815;59.336;17.998;2022-11-20T02:59:16;78370.09;;;-145.37;93.96
13486;BME280;6815;59.336;17.998;2022-11-20T03:01:41;78364.06;;;-145.37;94.00
13486;BME280;6815;59.336;17.998;2022-11-20T03:04:07;78374.13;;;-145.37;94.25
13486;BME280;6815;59.336;17.998;2022-11-20T03:06:32;78386.19;;;-145.37;94.13
13486;BME280;6815;59.336;17.998;2022-11-20T03:08:58;78356.03;;;-145.37;93.96
13486;BME280;6815;59.336;17.998;2022-11-20T03:11:23;78356.03;;;-145.37;93.96
13486;BME280;6815;59.336;17.998;2022-11-20T03:13:49;78362.06;;;-145.37;93.96
13486;BME280;6815;59.336;17.998;2022-11-20T03:16:17;78360.03;;;-145.37;94.61
13486;BME280;6815;59.336;17.998;2022-11-20T03:18:43;78364.06;;;-145.37;94.67
13486;BME280;6815;59.336;17.998;2022-11-20T03:21:10;78366.06;;;-145.37;94.94
13486;BME280;6815;59.336;17.998;2022-11-20T03:23:36;78368.09;;;-145.37;94.83
13486;BME280;6815;59.336;17.998;2022-11-20T03:28:41;78364.06;;;-145.37;94.80
13486;BME280;6815;59.336;17.998;2022-11-20T03:31:12;78366.06;;;-145.37;95.09
13486;BME280;6815;59.336;17.998;2022-11-20T03:33:39;78374.13;;;-145.37;95.27
13486;BME280;6815;59.336;17.998;2022-11-20T03:36:08;78356.03;;;-145.37;95.09
13486;BME280;6815;59.336;17.998;2022-11-20T03:38:34;78347.97;;;-145.37;94.95
13486;BME280;6815;59.336;17.998;2022-11-20T03:41:02;78366.06;;;-145.37;95.33
13486;BME280;6815;59.336;17.998;2022-11-20T03:43:28;78368.09;;;-145.37;95.38
13486;BME280;6815;59.336;17.998;2022-11-20T03:45:54;78364.06;;;-145.37;95.54
13486;BME280;6815;59.336;17.998;2022-11-20T03:48:19;78358.03;;;-145.37;95.42
13486;BME280;6815;59.336;17.998;2022-11-20T03:50:44;78358.03;;;-145.37;95.48
13486;BME280;6815;59.336;17.998;2022-11-20T03:53:14;78354.00;;;-145.37;94.96
13486;BME280;6815;59.336;17.998;2022-11-20T03:55:40;78343.94;;;-145.37;94.96
13486;BME280;6815;59.336;17.998;2022-11-20T03:58:05;78347.97;;;-145.37;94.67
13486;BME280;6815;59.336;17.998;2022-11-20T04:00:31;78345.97;;;-145.37;95.07
13486;BME280;6815;59.336;17.998;2022-11-20T04:03:00;78331.88;;;-145.37;94.89
13486;BME280;6815;59.336;17.998;2022-11-20T04:05:26;78327.84;;;-145.37;94.45
13486;BME280;6815;59.336;17.998;2022-11-20T04:07:52;78325.84;;;-145.37;94.27
13486;BME280;6815;59.336;17.998;2022-11-20T04:10:17;78323.84;;;-145.37;94.18
13486;BME280;6815;59.336;17.998;2022-11-20T04:12:42;78331.88;;;-145.37;94.24
13486;BME280;6815;59.336;17.998;2022-11-20T04:15:08;78341.94;;;-145.37;94.00
13486;BME280;6815;59.336;17.998;2022-11-20T04:17:34;78331.88;;;-145.37;94.01
13486;BME280;6815;59.336;17.998;2022-11-20T04:19:59;78323.84;;;-145.37;93.53
13486;BME280;6815;59.336;17.998;2022-11-20T04:22:25;78331.88;;;-145.37;93.65
13486;BME280;6815;59.336;17.998;2022-11-20T04:24:52;78331.88;;;-145.37;93.50
13486;BME280;6815;59.336;17.998;2022-11-20T04:27:17;78327.84;;;-145.37;93.20
13486;BME280;6815;59.336;17.998;2022-11-20T04:29:42;78323.84;;;-145.37;92.97
13486;BME280;6815;59.336;17.998;2022-11-20T04:32:08;78311.75;;;-145.37;92.91
13486;BME280;6815;59.336;17.998;2022-11-20T04:34:33;78315.78;;;-145.37;92.88
13486;BME280;6815;59.336;17.998;2022-11-20T04:36:59;78305.72;;;-145.37;92.50
13486;BME280;6815;59.336;17.998;2022-11-20T04:39:24;78305.72;;;-145.37;92.24
13486;BME280;6815;59.336;17.998;2022-11-20T04:41:50;78299.69;;;-145.37;92.23
13486;BME280;6815;59.336;17.998;2022-11-20T04:44:35;78299.69;;;-145.37;92.08
13486;BME280;6815;59.336;17.998;2022-11-20T04:47:00;78283.59;;;-145.37;91.87
13486;BME280;6815;59.336;17.998;2022-11-20T04:49:27;78291.66;;;-145.37;91.52
13486;BME280;6815;59.336;17.998;2022-11-20T04:51:53;78295.66;;;-145.37;92.00
13486;BME280;6815;59.336;17.998;2022-11-20T04:54:19;78301.69;;;-145.37;92.19
13486;BME280;6815;59.336;17.998;2022-11-20T04:56:47;78297.69;;;-145.37;92.00
13486;BME280;6815;59.336;17.998;2022-11-20T04:59:13;78297.69;;;-145.37;92.20
13486;BME280;6815;59.336;17.998;2022-11-20T05:01:38;78275.56;;;-145.37;91.84
13486;BME280;6815;59.336;17.998;2022-11-20T05:04:04;78291.66;;;-145.37;91.89
13486;BME280;6815;59.336;17.998;2022-11-20T05:06:31;78277.56;;;-145.37;91.91
13486;BME280;6815;59.336;17.998;2022-11-20T05:08:56;78281.59;;;-145.37;91.99
13486;BME280;6815;59.336;17.998;2022-11-20T05:11:22;78271.53;;;-145.37;91.80
13486;BME280;6815;59.336;17.998;2022-11-20T05:13:48;78263.47;;;-145.37;92.09
13486;BME280;6815;59.336;17.998;2022-11-20T05:16:19;78269.53;;;-145.37;91.84
13486;BME280;6815;59.336;17.998;2022-11-20T05:18:45;78257.44;;;-145.37;91.89
13486;BME280;6815;59.336;17.998;2022-11-20T05:21:11;78267.50;;;-145.37;92.05
13486;BME280;6815;59.336;17.998;2022-11-20T05:23:38;78281.59;;;-145.37;92.09
13486;BME280;6815;59.336;17.998;2022-11-20T05:26:05;78263.47;;;-145.37;91.88
13486;BME280;6815;59.336;17.998;2022-11-20T05:28:31;78271.53;;;-145.37;92.11
13486;BME280;6815;59.336;17.998;2022-11-20T05:31:07;78271.53;;;-145.37;92.17
13486;BME280;6815;59.336;17.998;2022-11-20T05:33:34;78253.44;;;-145.37;92.29
13486;BME280;6815;59.336;17.998;2022-11-20T05:36:03;78263.47;;;-145.37;92.13
13486;BME280;6815;59.336;17.998;2022-11-20T05:38:29;78257.44;;;-145.37;92.20
13486;BME280;6815;59.336;17.998;2022-11-20T05:40:54;78253.44;;;-145.37;92.20
13486;BME280;6815;59.336;17.998;2022-11-20T05:43:20;78251.41;;;-145.37;92.64
13486;BME280;6815;59.336;17.998;2022-11-20T05:45:54;78261.47;;;-145.37;92.34
13486;BME280;6815;59.336;17.998;2022-11-20T05:48:20;78249.41;;;-145.37;92.59
13486;BME280;6815;59.336;17.998;2022-11-20T05:50:47;78241.34;;;-145.37;92.42
13486;BME280;6815;59.336;17.998;2022-11-20T05:53:13;78251.41;;;-145.37;92.46
13486;BME280;6815;59.336;17.998;2022-11-20T05:55:38;78239.34;;;-145.37;91.82
13486;BME280;6815;59.336;17.998;2022-11-20T05:58:04;78243.38;;;-145.37;92.05
13486;BME280;6815;59.336;17.998;2022-11-20T06:00:29;78245.38;;;-145.37;91.93
13486;BME280;6815;59.336;17.998;2022-11-20T06:02:55;78247.41;;;-145.37;92.28
13486;BME280;6815;59.336;17.998;2022-11-20T06:05:21;78243.38;;;-145.37;92.23
13486;BME280;6815;59.336;17.998;2022-11-20T06:07:47;78237.34;;;-145.37;91.97
13486;BME280;6815;59.336;17.998;2022-11-20T06:10:12;78227.28;;;-145.37;92.08
13486;BME280;6815;59.336;17.998;2022-11-20T06:12:38;78233.31;;;-145.37;92.08
13486;BME280;6815;59.336;17.998;2022-11-20T06:15:04;78231.31;;;-145.37;92.71
13486;BME280;6815;59.336;17.998;2022-11-20T06:17:30;78233.31;;;-145.37;92.92
13486;BME280;6815;59.336;17.998;2022-11-20T06:19:55;78237.34;;;-145.37;92.79
13486;BME280;6815;59.336;17.998;2022-11-20T06:22:21;78241.34;;;-145.37;93.16
13486;BME280;6815;59.336;17.998;2022-11-20T06:24:47;78235.31;;;-145.37;93.45
13486;BME280;6815;59.336;17.998;2022-11-20T06:27:12;78243.38;;;-145.37;93.92
13486;BME280;6815;59.336;17.998;2022-11-20T06:29:38;78229.28;;;-145.37;93.71
13486;BME280;6815;59.336;17.998;2022-11-20T06:32:03;78229.28;;;-145.37;93.76
13486;BME280;6815;59.336;17.998;2022-11-20T06:34:29;78223.25;;;-145.37;93.50
13486;BME280;6815;59.336;17.998;2022-11-20T06:36:54;78209.19;;;-145.37;93.38
13486;BME280;6815;59.336;17.998;2022-11-20T06:39:19;78213.19;;;-145.37;93.33
13486;BME280;6815;59.336;17.998;2022-11-20T06:41:45;78219.22;;;-145.37;93.81
13486;BME280;6815;59.336;17.998;2022-11-20T06:44:10;78215.22;;;-145.37;93.78
13486;BME280;6815;59.336;17.998;2022-11-20T06:46:36;78217.22;;;-145.37;93.84
13486;BME280;6815;59.336;17.998;2022-11-20T06:49:01;78207.16;;;-145.37;93.93
13486;BME280;6815;59.336;17.998;2022-11-20T06:51:27;78211.19;;;-145.37;94.20
13486;BME280;6815;59.336;17.998;2022-11-20T06:53:53;78201.13;;;-145.37;93.99
13486;BME280;6815;59.336;17.998;2022-11-20T06:56:18;78201.13;;;-145.37;94.36
13486;BME280;6815;59.336;17.998;2022-11-20T06:58:44;78185.03;;;-145.37;93.69
13486;BME280;6815;59.336;17.998;2022-11-20T07:01:12;78183.03;;;-145.37;93.57
13486;BME280;6815;59.336;17.998;2022-11-20T07:03:37;78195.09;;;-145.37;93.61
13486;BME280;6815;59.336;17.998;2022-11-20T07:06:04;78195.09;;;-145.37;93.11
13486;BME280;6815;59.336;17.998;2022-11-20T07:08:30;78197.09;;;-145.37;93.31
13486;BME280;6815;59.336;17.998;2022-11-20T07:11:00;78189.06;;;-145.37;93.02
13486;BME280;6815;59.336;17.998;2022-11-20T07:13:27;78187.03;;;-145.37;92.53
13486;BME280;6815;59.336;17.998;2022-11-20T07:15:52;78193.09;;;-145.37;93.03
13486;BME280;6815;59.336;17.998;2022-11-20T07:18:18;78181.00;;;-145.37;92.94
13486;BME280;6815;59.336;17.998;2022-11-20T07:20:43;78193.09;;;-145.37;92.97
13486;BME280;6815;59.336;17.998;2022-11-20T07:23:09;78177.00;;;-145.37;93.22
13486;BME280;6815;59.336;17.998;2022-11-20T07:25:34;78130.72;;;-145.37;92.60
13486;BME280;6815;59.336;17.998;2022-11-20T07:28:00;78162.91;;;-145.37;92.36
13486;BME280;6815;59.336;17.998;2022-11-20T07:30:29;78150.84;;;-145.37;92.46
13486;BME280;6815;59.336;17.998;2022-11-20T07:32:55;78152.84;;;-145.37;92.04
13486;BME280;6815;59.336;17.998;2022-11-20T07:35:21;78164.91;;;-145.37;92.27
13486;BME280;6815;59.336;17.998;2022-11-20T07:37:47;78166.94;;;-145.37;92.59
13486;BME280;6815;59.336;17.998;2022-11-20T07:40:14;78160.91;;;-145.37;92.60
13486;BME280;6815;59.336;17.998;2022-11-20T07:42:47;78156.88;;;-145.37;92.43
13486;BME280;6815;59.336;17.998;2022-11-20T07:45:13;78170.97;;;-145.37;92.86
13486;BME280;6815;59.336;17.998;2022-11-20T07:47:38;78168.94;;;-145.37;93.20
13486;BME280;6815;59.336;17.998;2022-11-20T07:50:04;78164.91;;;-145.37;93.36
13486;BME280;6815;59.336;17.998;2022-11-20T07:52:29;78152.84;;;-145.37;93.28
13486;BME280;6815;59.336;17.998;2022-11-20T07:54:55;78160.91;;;-145.37;93.48
13486;BME280;6815;59.336;17.998;2022-11-20T07:57:20;78146.81;;;-145.37;93.47
13486;BME280;6815;59.336;17.998;2022-11-20T07:59:46;78130.72;;;-145.37;93.14
13486;BME280;6815;59.336;17.998;2022-11-20T08:02:11;78132.75;;;-145.37;93.30
13486;BME280;6815;59.336;17.998;2022-11-20T08:04:36;78134.75;;;-145.37;93.22
13486;BME280;6815;59.336;17.998;2022-11-20T08:07:02;78120.66;;;-145.37;93.13
13486;BME280;6815;59.336;17.998;2022-11-20T08:09:28;78128.72;;;-145.37;92.93
13486;BME280;6815;59.336;17.998;2022-11-20T08:11:54;78112.63;;;-145.37;93.08
13486;BME280;6815;59.336;17.998;2022-11-20T08:14:38;78118.66;;;-145.37;93.30
13486;BME280;6815;59.336;17.998;2022-11-20T08:17:03;78122.69;;;-145.37;93.31
13486;BME280;6815;59.336;17.998;2022-11-20T08:19:29;78120.66;;;-145.37;93.16
13486;BME280;6815;59.336;17.998;2022-11-20T08:21:55;78116.66;;;-145.37;93.23
13486;BME280;6815;59.336;17.998;2022-11-20T08:24:20;78108.59;;;-145.37;93.04
13486;BME280;6815;59.336;17.998;2022-11-20T08:26:46;78100.56;;;-145.37;93.00
13486;BME280;6815;59.336;17.998;2022-11-20T08:29:11;78094.53;;;-145.37;92.97
13486;BME280;6815;59.336;17.998;2022-11-20T08:31:37;78088.47;;;-145.37;93.18
13486;BME280;6815;59.336;17.998;2022-11-20T08:34:03;78092.50;;;-145.37;93.08
13486;BME280;6815;59.336;17.998;2022-11-20T08:36:28;78072.41;;;-145.37;92.91
13486;BME280;6815;59.336;17.998;2022-11-20T08:38:55;78078.44;;;-145.37;93.55
13486;BME280;6815;59.336;17.998;2022-11-20T08:41:21;78066.34;;;-145.37;93.24
13486;BME280;6815;59.336;17.998;2022-11-20T08:43:57;78070.38;;;-145.37;93.68
13486;BME280;6815;59.336;17.998;2022-11-20T08:46:26;78070.38;;;-145.37;93.62
13486;BME280;6815;59.336;17.998;2022-11-20T08:48:52;78060.31;;;-145.37;93.65
13486;BME280;6815;59.336;17.998;2022-11-20T08:51:19;78052.28;;;-145.37;93.38
13486;BME280;6815;59.336;17.998;2022-11-20T08:53:45;78054.28;;;-145.37;93.67
13486;BME280;6815;59.336;17.998;2022-11-20T08:56:11;78050.28;;;-145.37;93.52
13486;BME280;6815;59.336;17.998;2022-11-20T08:58:37;78052.28;;;-145.37;93.65
13486;BME280;6815;59.336;17.998;2022-11-20T09:01:04;78044.22;;;-145.37;93.36
13486;BME280;6815;59.336;17.998;2022-11-20T09:03:29;78044.22;;;-145.37;93.48
13486;BME280;6815;59.336;17.998;2022-11-20T09:06:02;78038.19;;;-145.37;93.20
13486;BME280;6815;59.336;17.998;2022-11-20T09:08:28;78048.25;;;-145.37;93.31
13486;BME280;6815;59.336;17.998;2022-11-20T09:10:55;78040.22;;;-145.37;92.99
13486;BME280;6815;59.336;17.998;2022-11-20T09:13:21;78040.22;;;-145.37;93.21
13486;BME280;6815;59.336;17.998;2022-11-20T09:15:59;78030.16;;;-145.37;93.01
13486;BME280;6815;59.336;17.998;2022-11-20T09:18:26;78034.19;;;-145.37;93.01
13486;BME280;6815;59.336;17.998;2022-11-20T09:20:52;78036.19;;;-145.37;92.95
13486;BME280;6815;59.336;17.998;2022-11-20T09:23:21;78046.25;;;-145.37;93.36
13486;BME280;6815;59.336;17.998;2022-11-20T09:25:46;78030.16;;;-145.37;93.73
13486;BME280;6815;59.336;17.998;2022-11-20T09:28:11;78042.22;;;-145.37;93.55
13486;BME280;6815;59.336;17.998;2022-11-20T09:30:37;78038.19;;;-145.37;93.84
13486;BME280;6815;59.336;17.998;2022-11-20T09:33:04;78030.16;;;-145.37;94.02
13486;BME280;6815;59.336;17.998;2022-11-20T09:35:29;78024.13;;;-145.37;93.93
13486;BME280;6815;59.336;17.998;2022-11-20T09:37:55;78020.09;;;-145.37;94.09
13486;BME280;6815;59.336;17.998;2022-11-20T09:40:28;78012.06;;;-145.37;93.95
13486;BME280;6815;59.336;17.998;2022-11-20T09:49:01;78008.03;;;-145.37;93.79
13486;BME280;6815;59.336;17.998;2022-11-20T09:56:37;77993.94;;;-145.37;93.34
13486;BME280;6815;59.336;17.998;2022-11-20T09:59:06;77985.91;;;-145.37;93.25
13486;BME280;6815;59.336;17.998;2022-11-20T10:01:35;77985.91;;;-145.37;92.96
13486;BME280;6815;59.336;17.998;2022-11-20T10:04:04;77993.94;;;-145.37;93.09
13486;BME280;6815;59.336;17.998;2022-11-20T10:06:39;77981.88;;;-145.37;93.54
13486;BME280;6815;59.336;17.998;2022-11-20T10:09:25;77969.81;;;-145.37;93.33
13486;BME280;6815;59.336;17.998;2022-11-20T10:12:14;77985.91;;;-145.37;93.28
13486;BME280;6815;59.336;17.998;2022-11-20T10:15:24;77985.91;;;-145.37;93.75
13486;BME280;6815;59.336;17.998;2022-11-20T10:25:52;77957.75;;;-145.37;93.87
13486;BME280;6815;59.336;17.998;2022-11-20T10:29:25;77953.72;;;-145.37;93.67
13486;BME280;6815;59.336;17.998;2022-11-20T10:31:32;77955.72;;;-145.37;93.88
13486;BME280;6815;59.336;17.998;2022-11-20T10:34:01;77955.72;;;-145.37;93.61
13486;BME280;6815;59.336;17.998;2022-11-20T10:36:35;77945.69;;;-145.37;93.49
13486;BME280;6815;59.336;17.998;2022-11-20T10:39:11;77943.66;;;-145.37;93.75
13486;BME280;6815;59.336;17.998;2022-11-20T10:41:43;77939.63;;;-145.37;93.75
13486;BME280;6815;59.336;17.998;2022-11-20T10:44:16;77937.63;;;-145.37;93.78
13486;BME280;6815;59.336;17.998;2022-11-20T10:47:04;77939.63;;;-145.37;94.17
13486;BME280;6815;59.336;17.998;2022-11-20T10:49:30;77943.66;;;-145.37;94.22
13486;BME280;6815;59.336;17.998;2022-11-20T10:54:54;77937.63;;;-145.37;94.62
13486;BME280;6815;59.336;17.998;2022-11-20T10:57:53;77941.66;;;-145.37;94.65
13486;BME280;6815;59.336;17.998;2022-11-20T11:00:22;77929.59;;;-145.37;95.01
13486;BME280;6815;59.336;17.998;2022-11-20T11:02:49;77919.53;;;-145.37;94.72
13486;BME280;6815;59.336;17.998;2022-11-20T11:05:27;77919.53;;;-145.37;94.81
13486;BME280;6815;59.336;17.998;2022-11-20T11:07:57;77907.47;;;-145.37;94.79
13486;BME280;6815;59.336;17.998;2022-11-20T11:13:01;77907.47;;;-145.37;94.90
13486;BME280;6815;59.336;17.998;2022-11-20T11:15:40;77903.44;;;-145.37;94.68
13486;BME280;6815;59.336;17.998;2022-11-20T11:18:10;77901.44;;;-145.37;94.77
13486;BME280;6815;59.336;17.998;2022-11-20T11:20:35;77893.38;;;-145.37;94.37
13486;BME280;6815;59.336;17.998;2022-11-20T11:23:02;77883.31;;;-145.37;94.21
13486;BME280;6815;59.336;17.998;2022-11-20T11:25:32;77867.22;;;-145.37;94.31
13486;BME280;6815;59.336;17.998;2022-11-20T11:28:17;77867.22;;;-145.37;94.67
13486;BME280;6815;59.336;17.998;2022-11-20T11:30:45;77865.22;;;-145.37;94.76
13486;BME280;6815;59.336;17.998;2022-11-20T11:33:21;77853.16;;;-145.37;94.76
13486;BME280;6815;59.336;17.998;2022-11-20T11:35:53;77863.22;;;-145.37;95.17
13486;BME280;6815;59.336;17.998;2022-11-20T11:38:28;77859.19;;;-145.37;95.39
13486;BME280;6815;59.336;17.998;2022-11-20T11:40:56;77855.16;;;-145.37;95.44
13486;BME280;6815;59.336;17.998;2022-11-20T11:43:25;77865.22;;;-145.37;95.78
13486;BME280;6815;59.336;17.998;2022-11-20T11:46:33;77847.13;;;-145.37;95.44
13486;BME280;6815;59.336;17.998;2022-11-20T11:51:34;77847.13;;;-145.37;95.37
13486;BME280;6815;59.336;17.998;2022-11-20T11:54:10;77853.16;;;-145.37;95.77
13486;BME280;6815;59.336;17.998;2022-11-20T11:56:39;77833.03;;;-145.37;95.32
13486;BME280;6815;59.336;17.998;2022-11-20T11:59:06;77841.09;;;-145.37;95.54
13486;BME280;6815;59.336;17.998;2022-11-20T12:01:45;77855.16;;;-145.37;95.98
13486;BME280;6815;59.336;17.998;2022-11-20T12:04:37;77837.06;;;-145.37;95.66
13486;BME280;6815;59.336;17.998;2022-11-20T12:10:02;77849.13;;;-145.37;96.60
13486;BME280;6815;59.336;17.998;2022-11-20T12:12:32;77855.16;;;-145.37;96.54
13486;BME280;6815;59.336;17.998;2022-11-20T12:15:02;77853.16;;;-145.37;96.52
13486;BME280;6815;59.336;17.998;2022-11-20T12:17:29;77839.06;;;-145.37;96.46
13486;BME280;6815;59.336;17.998;2022-11-20T12:19:54;77839.06;;;-145.37;96.56
13486;BME280;6815;59.336;17.998;2022-11-20T12:25:18;77820.97;;;-145.37;96.91
13486;BME280;6815;59.336;17.998;2022-11-20T12:30:22;77825.00;;;-145.37;97.54
13486;BME280;6815;59.336;17.998;2022-11-20T12:33:03;77837.06;;;-145.37;97.55
13486;BME280;6815;59.336;17.998;2022-11-20T12:49:50;77841.09;;;-145.37;97.58
13486;BME280;6815;59.336;17.998;2022-11-20T13:01:17;77808.91;;;-145.37;97.59
13486;BME280;6815;59.336;17.998;2022-11-20T13:06:51;77808.91;;;-145.37;97.86
13486;BME280;6815;59.336;17.998;2022-11-20T13:09:19;77800.88;;;-145.37;97.04
13486;BME280;6815;59.336;17.998;2022-11-20T13:12:11;77792.81;;;-145.37;97.03
13486;BME280;6815;59.336;17.998;2022-11-20T13:14:47;77790.81;;;-145.37;96.37
13486;BME280;6815;59.336;17.998;2022-11-20T13:19:52;77782.75;;;-145.37;95.32
13486;BME280;6815;59.336;17.998;2022-11-20T13:22:26;77794.81;;;-145.37;94.47
13486;BME280;6815;59.336;17.998;2022-11-20T13:24:52;77782.75;;;-145.37;93.27
13486;BME280;6815;59.336;17.998;2022-11-20T13:27:23;77774.72;;;-145.37;92.79
13486;BME280;6815;59.336;17.998;2022-11-20T13:30:00;77782.75;;;-145.37;93.08
13486;BME280;6815;59.336;17.998;2022-11-20T13:32:26;77776.72;;;-145.37;92.92
13486;BME280;6815;59.336;17.998;2022-11-20T13:35:03;77768.69;;;-145.37;93.17
13486;BME280;6815;59.336;17.998;2022-11-20T13:37:34;77778.75;;;-145.37;92.94
13486;BME280;6815;59.336;17.998;2022-11-20T13:42:39;77774.72;;;-145.37;91.57
13486;BME280;6815;59.336;17.998;2022-11-20T13:45:20;77772.69;;;-145.37;91.06
13486;BME280;6815;59.336;17.998;2022-11-20T13:47:50;77772.69;;;-145.37;90.84
13486;BME280;6815;59.336;17.998;2022-11-20T13:50:16;77766.66;;;-145.37;90.19
13486;BME280;6815;59.336;17.998;2022-11-20T13:53:18;77772.69;;;-145.37;90.00
13486;BME280;6815;59.336;17.998;2022-11-20T13:55:54;77774.72;;;-145.37;90.02
13486;BME280;6815;59.336;17.998;2022-11-20T14:01:20;77764.66;;;-145.37;91.01
13486;BME280;6815;59.336;17.998;2022-11-20T14:03:47;77778.75;;;-145.37;91.01